createdAt,value
2018-05-08T00:00:00.369Z,13.16
2018-05-08T00:00:04.475Z,13.16
2018-05-08T00:00:08.756Z,13.17
2018-05-08T00:00:12.968Z,13.15
2018-05-08T00:00:17.180Z,13.15
2018-05-08T00:00:21.389Z,13.16
2018-05-08T00:00:25.594Z,13.16
2018-05-08T00:00:29.801Z,13.16
2018-05-08T00:00:34.158Z,13.16
2018-05-08T00:00:38.333Z,13.15
2018-05-08T00:00:42.441Z,13.15
2018-05-08T00:00:46.553Z,13.14
2018-05-08T00:00:50.905Z,13.14
2018-05-08T00:00:55.220Z,13.15
2018-05-08T00:00:59.433Z,13.15
2018-05-08T00:01:03.638Z,13.15
2018-05-08T00:01:07.849Z,13.13
2018-05-08T00:01:12.167Z,13.15
2018-05-08T00:01:16.485Z,13.15
2018-05-08T00:01:20.802Z,13.15
2018-05-08T00:01:25.126Z,13.15
2018-05-08T00:01:29.446Z,13.14
2018-05-08T00:01:33.768Z,13.14
2018-05-08T00:01:38.096Z,13.13
2018-05-08T00:01:42.195Z,13.14
2018-05-08T00:01:46.422Z,13.13
2018-05-08T00:01:50.635Z,13.13
2018-05-08T00:01:54.846Z,13.13
2018-05-08T00:01:59.162Z,13.13
2018-05-08T00:02:03.490Z,13.14
2018-05-08T00:02:07.617Z,13.13
2018-05-08T00:02:11.843Z,13.13
2018-05-08T00:02:16.056Z,13.12
2018-05-08T00:02:20.387Z,13.12
2018-05-08T00:02:24.598Z,13.12
2018-05-08T00:02:28.911Z,13.12
2018-05-08T00:02:33.122Z,13.11
2018-05-08T00:02:37.220Z,13.12
2018-05-08T00:02:41.424Z,13.12
2018-05-08T00:02:45.644Z,13.12
2018-05-08T00:02:49.866Z,13.11
2018-05-08T00:02:54.174Z,13.12
2018-05-08T00:02:58.383Z,13.12
2018-05-08T00:03:02.370Z,13.11
2018-05-08T00:03:06.694Z,13.11
2018-05-08T00:03:10.581Z,13.11
2018-05-08T00:03:14.786Z,13.11
2018-05-08T00:03:18.993Z,13.11
2018-05-08T00:03:22.995Z,13.11
2018-05-08T00:03:27.211Z,13.1
2018-05-08T00:03:31.529Z,13.1
2018-05-08T00:03:35.742Z,13.1
2018-05-08T00:03:39.851Z,13.11
2018-05-08T00:03:43.950Z,13.1
2018-05-08T00:03:48.162Z,13.1
2018-05-08T00:03:52.385Z,13.1
2018-05-08T00:03:56.596Z,13.1
2018-05-08T00:04:00.920Z,13.09
2018-05-08T00:04:05.029Z,13.09
2018-05-08T00:04:09.130Z,13.1
2018-05-08T00:04:13.338Z,13.09
2018-05-08T00:04:17.550Z,13.09
2018-05-08T00:04:21.774Z,13.09
2018-05-08T00:04:25.882Z,13.09
2018-05-08T00:04:29.980Z,13.08
2018-05-08T00:04:34.183Z,13.08
2018-05-08T00:04:38.503Z,13.08
2018-05-08T00:04:42.395Z,13.07
2018-05-08T00:04:46.603Z,13.08
2018-05-08T00:04:50.705Z,13.08
2018-05-08T00:04:54.911Z,13.07
2018-05-08T00:04:59.121Z,13.07
2018-05-08T00:05:03.388Z,13.07
2018-05-08T00:05:07.484Z,13.07
2018-05-08T00:05:11.600Z,13.07
2018-05-08T00:05:15.928Z,13.07
2018-05-08T00:05:20.245Z,13.07
2018-05-08T00:05:24.450Z,13.07
2018-05-08T00:05:28.664Z,13.07
2018-05-08T00:05:32.883Z,13.07
2018-05-08T00:05:37.197Z,13.06
2018-05-08T00:05:41.407Z,13.06
2018-05-08T00:05:45.520Z,13.06
2018-05-08T00:05:49.736Z,13.05
2018-05-08T00:05:54.059Z,13.05
2018-05-08T00:05:58.385Z,13.06
2018-05-08T00:06:02.755Z,13.05
2018-05-08T00:06:06.962Z,13.06
2018-05-08T00:06:11.058Z,13.04
2018-05-08T00:06:15.271Z,13.04
2018-05-08T00:06:19.485Z,13.04
2018-05-08T00:06:23.708Z,13.05
2018-05-08T00:06:28.040Z,13.05
2018-05-08T00:06:32.261Z,13.05
2018-05-08T00:06:36.464Z,13.04
2018-05-08T00:06:40.778Z,13.04
2018-05-08T00:06:45.016Z,13.04
2018-05-08T00:06:49.222Z,13.03
2018-05-08T00:06:53.434Z,13.03
2018-05-08T00:06:57.643Z,13.04
2018-05-08T00:07:01.918Z,13.03
2018-05-08T00:07:06.020Z,13.03
2018-05-08T00:07:10.022Z,13.03
2018-05-08T00:07:14.119Z,13.02
2018-05-08T00:07:18.335Z,13.02
2018-05-08T00:07:22.548Z,13.02
2018-05-08T00:07:26.756Z,13.02
2018-05-08T00:07:30.972Z,13.02
2018-05-08T00:07:35.183Z,13.02
2018-05-08T00:07:39.393Z,13.02
2018-05-08T00:07:43.602Z,13.02
2018-05-08T00:07:47.712Z,13.02
2018-05-08T00:07:52.027Z,13.02
2018-05-08T00:07:56.234Z,13.01
2018-05-08T00:08:00.444Z,13.01
2018-05-08T00:08:04.758Z,13.01
2018-05-08T00:08:08.886Z,13
2018-05-08T00:08:12.990Z,13.01
2018-05-08T00:08:17.308Z,13
2018-05-08T00:08:21.515Z,13
2018-05-08T00:08:25.835Z,13
2018-05-08T00:08:30.039Z,13
2018-05-08T00:08:34.137Z,13
2018-05-08T00:08:38.345Z,12.99
2018-05-08T00:08:42.445Z,13
2018-05-08T00:08:46.386Z,12.99
2018-05-08T00:08:51.231Z,12.99
2018-05-08T00:08:55.587Z,12.99
2018-05-08T00:09:00.467Z,13
2018-05-08T00:09:04.576Z,12.98
2018-05-08T00:09:08.675Z,12.99
2018-05-08T00:09:12.782Z,12.98
2018-05-08T00:09:16.994Z,12.99
2018-05-08T00:09:21.100Z,12.98
2018-05-08T00:09:25.315Z,12.98
2018-05-08T00:09:29.312Z,12.98
2018-05-08T00:09:33.424Z,12.98
2018-05-08T00:09:37.635Z,12.98
2018-05-08T00:09:41.741Z,12.97
2018-05-08T00:09:45.952Z,12.97
2018-05-08T00:09:50.049Z,12.97
2018-05-08T00:09:54.146Z,12.97
2018-05-08T00:09:58.463Z,12.97
2018-05-08T00:10:02.683Z,12.96
2018-05-08T00:10:06.911Z,12.97
2018-05-08T00:10:11.227Z,12.96
2018-05-08T00:10:15.342Z,12.96
2018-05-08T00:10:19.550Z,12.96
2018-05-08T00:10:23.766Z,12.97
2018-05-08T00:10:27.977Z,12.96
2018-05-08T00:10:32.078Z,12.96
2018-05-08T00:10:36.399Z,12.96
2018-05-08T00:10:40.604Z,12.96
2018-05-08T00:10:44.495Z,12.96
2018-05-08T00:10:48.595Z,12.95
2018-05-08T00:10:52.915Z,12.96
2018-05-08T00:10:57.240Z,12.96
2018-05-08T00:11:01.339Z,12.95
2018-05-08T00:11:05.450Z,12.96
2018-05-08T00:11:09.670Z,12.96
2018-05-08T00:11:13.660Z,12.95
2018-05-08T00:11:17.662Z,12.95
2018-05-08T00:11:22.004Z,12.95
2018-05-08T00:11:26.215Z,12.95
2018-05-08T00:11:30.422Z,12.94
2018-05-08T00:11:34.733Z,12.95
2018-05-08T00:11:39.018Z,12.95
2018-05-08T00:11:43.333Z,12.95
2018-05-08T00:11:47.441Z,12.94
2018-05-08T00:11:51.552Z,12.95
2018-05-08T00:11:55.878Z,12.94
2018-05-08T00:12:00.193Z,12.93
2018-05-08T00:12:04.514Z,12.94
2018-05-08T00:12:08.730Z,12.94
2018-05-08T00:12:13.057Z,12.92
2018-05-08T00:12:17.170Z,12.94
2018-05-08T00:12:21.376Z,12.93
2018-05-08T00:12:25.584Z,12.93
2018-05-08T00:12:29.904Z,12.93
2018-05-08T00:12:34.243Z,12.93
2018-05-08T00:12:38.451Z,12.93
2018-05-08T00:12:42.775Z,12.93
2018-05-08T00:12:46.887Z,12.92
2018-05-08T00:12:51.212Z,12.93
2018-05-08T00:12:55.523Z,12.92
2018-05-08T00:12:59.624Z,12.92
2018-05-08T00:13:03.752Z,12.92
2018-05-08T00:13:07.648Z,12.92
2018-05-08T00:13:11.856Z,12.92
2018-05-08T00:13:15.965Z,12.92
2018-05-08T00:13:20.292Z,12.91
2018-05-08T00:13:24.615Z,12.92
2018-05-08T00:13:28.714Z,12.91
2018-05-08T00:13:33.028Z,12.9
2018-05-08T00:13:37.234Z,12.91
2018-05-08T00:13:41.560Z,12.91
2018-05-08T00:13:45.765Z,12.91
2018-05-08T00:13:49.972Z,12.91
2018-05-08T00:13:54.179Z,12.9
2018-05-08T00:13:58.277Z,12.9
2018-05-08T00:14:02.639Z,12.9
2018-05-08T00:14:06.851Z,12.9
2018-05-08T00:14:11.061Z,12.89
2018-05-08T00:14:15.176Z,12.89
2018-05-08T00:14:19.497Z,12.89
2018-05-08T00:14:23.809Z,12.89
2018-05-08T00:14:28.137Z,12.89
2018-05-08T00:14:32.448Z,12.89
2018-05-08T00:14:36.662Z,12.88
2018-05-08T00:14:40.874Z,12.89
2018-05-08T00:14:45.206Z,12.89
2018-05-08T00:14:49.526Z,12.88
2018-05-08T00:14:53.740Z,12.88
2018-05-08T00:14:58.085Z,12.88
2018-05-08T00:15:02.398Z,12.88
2018-05-08T00:15:06.618Z,12.88
2018-05-08T00:15:10.826Z,12.88
2018-05-08T00:15:15.157Z,12.88
2018-05-08T00:15:19.261Z,12.88
2018-05-08T00:15:23.368Z,12.88
2018-05-08T00:15:27.469Z,12.87
2018-05-08T00:15:31.783Z,12.87
2018-05-08T00:15:36.102Z,12.87
2018-05-08T00:15:40.308Z,12.87
2018-05-08T00:15:44.526Z,12.87
2018-05-08T00:15:48.736Z,12.87
2018-05-08T00:15:53.064Z,12.87
2018-05-08T00:15:57.395Z,12.86
2018-05-08T00:16:01.679Z,12.86
2018-05-08T00:16:05.673Z,12.87
2018-05-08T00:16:09.882Z,12.86
2018-05-08T00:16:13.994Z,12.86
2018-05-08T00:16:18.312Z,12.86
2018-05-08T00:16:22.538Z,12.86
2018-05-08T00:16:26.865Z,12.86
2018-05-08T00:16:30.756Z,12.85
2018-05-08T00:16:34.862Z,12.85
2018-05-08T00:16:39.079Z,12.85
2018-05-08T00:16:43.255Z,12.85
2018-05-08T00:16:47.573Z,12.85
2018-05-08T00:16:51.793Z,12.85
2018-05-08T00:16:55.900Z,12.86
2018-05-08T00:17:00.109Z,12.85
2018-05-08T00:17:04.214Z,12.85
2018-05-08T00:17:08.535Z,12.84
2018-05-08T00:17:12.743Z,12.85
2018-05-08T00:17:17.060Z,12.84
2018-05-08T00:17:21.379Z,12.85
2018-05-08T00:17:25.692Z,12.85
2018-05-08T00:17:30.017Z,12.85
2018-05-08T00:17:34.228Z,12.84
2018-05-08T00:17:38.562Z,12.84
2018-05-08T00:17:42.845Z,12.85
2018-05-08T00:17:47.166Z,12.84
2018-05-08T00:17:51.265Z,12.83
2018-05-08T00:17:55.474Z,12.84
2018-05-08T00:17:59.577Z,12.84
2018-05-08T00:18:03.908Z,12.83
2018-05-08T00:18:08.048Z,12.84
2018-05-08T00:18:12.254Z,12.83
2018-05-08T00:18:16.244Z,12.83
2018-05-08T00:18:20.606Z,12.83
2018-05-08T00:18:24.922Z,12.83
2018-05-08T00:18:29.125Z,12.83
2018-05-08T00:18:33.329Z,12.83
2018-05-08T00:18:37.538Z,12.83
2018-05-08T00:18:41.849Z,12.83
2018-05-08T00:18:45.956Z,12.83
2018-05-08T00:18:50.058Z,12.83
2018-05-08T00:18:54.385Z,12.82
2018-05-08T00:18:58.700Z,12.82
2018-05-08T00:19:02.816Z,12.82
2018-05-08T00:19:06.809Z,12.82
2018-05-08T00:19:11.041Z,12.82
2018-05-08T00:19:15.256Z,12.81
2018-05-08T00:19:19.463Z,12.82
2018-05-08T00:19:23.677Z,12.82
2018-05-08T00:19:28.010Z,12.82
2018-05-08T00:19:32.221Z,12.82
2018-05-08T00:19:36.429Z,12.81
2018-05-08T00:19:40.656Z,12.82
2018-05-08T00:19:44.764Z,12.82
2018-05-08T00:19:48.973Z,12.81
2018-05-08T00:19:53.187Z,12.82
2018-05-08T00:19:57.501Z,12.81
2018-05-08T00:20:01.677Z,12.81
2018-05-08T00:20:05.793Z,12.81
2018-05-08T00:20:09.796Z,12.81
2018-05-08T00:20:13.897Z,12.81
2018-05-08T00:20:18.110Z,12.81
2018-05-08T00:20:22.319Z,12.81
2018-05-08T00:20:26.537Z,12.8
2018-05-08T00:20:30.752Z,12.81
2018-05-08T00:20:34.969Z,12.8
2018-05-08T00:20:39.286Z,12.79
2018-05-08T00:20:43.636Z,12.8
2018-05-08T00:20:47.849Z,12.8
2018-05-08T00:20:52.054Z,12.8
2018-05-08T00:20:56.372Z,12.79
2018-05-08T00:21:00.365Z,12.79
2018-05-08T00:21:04.575Z,12.8
2018-05-08T00:21:08.799Z,12.8
2018-05-08T00:21:13.013Z,12.78
2018-05-08T00:21:17.329Z,12.79
2018-05-08T00:21:21.537Z,12.79
2018-05-08T00:21:25.749Z,12.79
2018-05-08T00:21:30.065Z,12.78
2018-05-08T00:21:34.272Z,12.78
2018-05-08T00:21:38.593Z,12.79
2018-05-08T00:21:42.803Z,12.78
2018-05-08T00:21:47.112Z,12.78
2018-05-08T00:21:51.315Z,12.78
2018-05-08T00:21:55.307Z,12.78
2018-05-08T00:21:59.517Z,12.77
2018-05-08T00:22:03.615Z,12.77
2018-05-08T00:22:07.937Z,12.77
2018-05-08T00:22:12.144Z,12.76
2018-05-08T00:22:16.134Z,12.77
2018-05-08T00:22:20.342Z,12.76
2018-05-08T00:22:24.437Z,12.77
2018-05-08T00:22:28.827Z,12.77
2018-05-08T00:22:32.942Z,12.77
2018-05-08T00:22:37.259Z,12.77
2018-05-08T00:22:41.462Z,12.77
2018-05-08T00:22:45.681Z,12.76
2018-05-08T00:22:49.999Z,12.76
2018-05-08T00:22:54.206Z,12.75
2018-05-08T00:22:58.419Z,12.76
2018-05-08T00:23:02.816Z,12.76
2018-05-08T00:23:06.826Z,12.75
2018-05-08T00:23:11.041Z,12.76
2018-05-08T00:23:15.163Z,12.75
2018-05-08T00:23:19.155Z,12.75
2018-05-08T00:23:23.481Z,12.75
2018-05-08T00:23:27.696Z,12.76
2018-05-08T00:23:31.921Z,12.75
2018-05-08T00:23:36.131Z,12.75
2018-05-08T00:23:40.450Z,12.75
2018-05-08T00:23:44.549Z,12.74
2018-05-08T00:23:48.438Z,12.75
2018-05-08T00:23:52.757Z,12.76
2018-05-08T00:23:56.962Z,12.75
2018-05-08T00:24:01.068Z,12.74
2018-05-08T00:24:05.320Z,12.75
2018-05-08T00:24:09.532Z,12.74
2018-05-08T00:24:13.852Z,12.75
2018-05-08T00:24:18.069Z,12.74
2018-05-08T00:24:22.167Z,12.74
2018-05-08T00:24:26.166Z,12.74
2018-05-08T00:24:30.478Z,12.75
2018-05-08T00:24:34.790Z,12.75
2018-05-08T00:24:39.074Z,12.74
2018-05-08T00:24:43.172Z,12.73
2018-05-08T00:24:47.382Z,12.74
2018-05-08T00:24:51.585Z,12.75
2018-05-08T00:24:55.795Z,12.74
2018-05-08T00:24:59.899Z,12.74
2018-05-08T00:25:04.012Z,12.74
2018-05-08T00:25:08.237Z,12.73
2018-05-08T00:25:12.448Z,12.74
2018-05-08T00:25:16.769Z,12.73
2018-05-08T00:25:20.980Z,12.73
2018-05-08T00:25:24.964Z,12.72
2018-05-08T00:25:29.165Z,12.73
2018-05-08T00:25:33.159Z,12.73
2018-05-08T00:25:37.370Z,12.73
2018-05-08T00:25:41.591Z,12.73
2018-05-08T00:25:45.592Z,12.72
2018-05-08T00:25:49.803Z,12.73
2018-05-08T00:25:54.019Z,12.73
2018-05-08T00:25:58.234Z,12.73
2018-05-08T00:26:02.438Z,12.73
2018-05-08T00:26:06.551Z,12.73
2018-05-08T00:26:10.766Z,12.72
2018-05-08T00:26:14.868Z,12.72
2018-05-08T00:26:19.076Z,12.72
2018-05-08T00:26:23.395Z,12.72
2018-05-08T00:26:27.706Z,12.72
2018-05-08T00:26:31.910Z,12.72
2018-05-08T00:26:36.123Z,12.72
2018-05-08T00:26:40.347Z,12.73
2018-05-08T00:26:44.448Z,12.73
2018-05-08T00:26:48.761Z,12.72
2018-05-08T00:26:52.953Z,12.72
2018-05-08T00:26:57.174Z,12.71
2018-05-08T00:27:01.279Z,12.72
2018-05-08T00:27:05.536Z,12.72
2018-05-08T00:27:09.641Z,12.72
2018-05-08T00:27:13.964Z,12.72
2018-05-08T00:27:18.072Z,12.72
2018-05-08T00:27:22.278Z,12.71
2018-05-08T00:27:26.379Z,12.72
2018-05-08T00:27:30.566Z,12.72
2018-05-08T00:27:34.884Z,12.71
2018-05-08T00:27:39.094Z,12.71
2018-05-08T00:27:43.405Z,12.71
2018-05-08T00:27:47.615Z,12.71
2018-05-08T00:27:51.837Z,12.71
2018-05-08T00:27:56.159Z,12.71
2018-05-08T00:28:00.367Z,12.72
2018-05-08T00:28:04.565Z,12.72
2018-05-08T00:28:08.863Z,12.71
2018-05-08T00:28:12.863Z,12.72
2018-05-08T00:28:17.185Z,12.71
2018-05-08T00:28:21.519Z,12.71
2018-05-08T00:28:25.829Z,12.71
2018-05-08T00:28:30.040Z,12.71
2018-05-08T00:28:34.249Z,12.7
2018-05-08T00:28:38.465Z,12.7
2018-05-08T00:28:42.789Z,12.71
2018-05-08T00:28:46.890Z,12.7
2018-05-08T00:28:51.105Z,12.7
2018-05-08T00:28:55.203Z,12.71
2018-05-08T00:28:59.313Z,12.71
2018-05-08T00:29:03.524Z,12.71
2018-05-08T00:29:07.633Z,12.71
2018-05-08T00:29:11.857Z,12.71
2018-05-08T00:29:15.847Z,12.7
2018-05-08T00:29:20.066Z,12.7
2018-05-08T00:29:24.385Z,12.7
2018-05-08T00:29:28.591Z,12.7
2018-05-08T00:29:32.581Z,12.7
2018-05-08T00:29:36.579Z,12.69
2018-05-08T00:29:40.797Z,12.69
2018-05-08T00:29:44.903Z,12.7
2018-05-08T00:29:49.221Z,12.69
2018-05-08T00:29:53.432Z,12.69
2018-05-08T00:29:57.688Z,12.69
2018-05-08T00:30:01.896Z,12.69
2018-05-08T00:30:05.900Z,12.68
2018-05-08T00:30:10.230Z,12.7
2018-05-08T00:30:14.569Z,12.68
2018-05-08T00:30:18.895Z,12.69
2018-05-08T00:30:23.214Z,12.69
2018-05-08T00:30:27.542Z,12.68
2018-05-08T00:30:31.750Z,12.69
2018-05-08T00:30:35.967Z,12.69
2018-05-08T00:30:40.286Z,12.69
2018-05-08T00:30:44.595Z,12.69
2018-05-08T00:30:48.693Z,12.68
2018-05-08T00:30:52.790Z,12.69
2018-05-08T00:30:57.005Z,12.68
2018-05-08T00:31:01.229Z,12.69
2018-05-08T00:31:05.341Z,12.69
2018-05-08T00:31:09.555Z,12.69
2018-05-08T00:31:13.928Z,12.69
2018-05-08T00:31:18.039Z,12.69
2018-05-08T00:31:22.246Z,12.69
2018-05-08T00:31:26.447Z,12.69
2018-05-08T00:31:30.547Z,12.68
2018-05-08T00:31:34.653Z,12.68
2018-05-08T00:31:38.869Z,12.69
2018-05-08T00:31:43.079Z,12.68
2018-05-08T00:31:47.392Z,12.68
2018-05-08T00:31:51.713Z,12.68
2018-05-08T00:31:55.923Z,12.68
2018-05-08T00:32:00.251Z,12.68
2018-05-08T00:32:04.563Z,12.68
2018-05-08T00:32:08.660Z,12.68
2018-05-08T00:32:12.764Z,12.68
2018-05-08T00:32:16.865Z,12.69
2018-05-08T00:32:21.131Z,12.68
2018-05-08T00:32:25.451Z,12.69
2018-05-08T00:32:29.657Z,12.68
2018-05-08T00:32:33.866Z,12.68
2018-05-08T00:32:38.188Z,12.68
2018-05-08T00:32:42.391Z,12.68
2018-05-08T00:32:46.387Z,12.67
2018-05-08T00:32:50.600Z,12.68
2018-05-08T00:32:54.920Z,12.68
2018-05-08T00:32:59.126Z,12.68
2018-05-08T00:33:03.390Z,12.69
2018-05-08T00:33:07.492Z,12.68
2018-05-08T00:33:11.705Z,12.68
2018-05-08T00:33:15.907Z,12.68
2018-05-08T00:33:20.216Z,12.68
2018-05-08T00:33:24.527Z,12.68
2018-05-08T00:33:28.635Z,12.68
2018-05-08T00:33:32.842Z,12.68
2018-05-08T00:33:37.050Z,12.68
2018-05-08T00:33:41.441Z,12.67
2018-05-08T00:33:45.554Z,12.67
2018-05-08T00:33:49.768Z,12.67
2018-05-08T00:33:54.081Z,12.67
2018-05-08T00:33:58.292Z,12.66
2018-05-08T00:34:02.619Z,12.67
2018-05-08T00:34:06.619Z,12.67
2018-05-08T00:34:10.932Z,12.67
2018-05-08T00:34:15.138Z,12.67
2018-05-08T00:34:19.458Z,12.67
2018-05-08T00:34:23.826Z,12.67
2018-05-08T00:34:28.037Z,12.66
2018-05-08T00:34:32.254Z,12.67
2018-05-08T00:34:36.353Z,12.67
2018-05-08T00:34:40.565Z,12.67
2018-05-08T00:34:44.663Z,12.66
2018-05-08T00:34:48.998Z,12.66
2018-05-08T00:34:53.210Z,12.67
2018-05-08T00:34:57.315Z,12.66
2018-05-08T00:35:01.534Z,12.66
2018-05-08T00:35:05.853Z,12.66
2018-05-08T00:35:10.065Z,12.67
2018-05-08T00:35:14.269Z,12.66
2018-05-08T00:35:18.481Z,12.66
2018-05-08T00:35:22.793Z,12.66
2018-05-08T00:35:27.107Z,12.66
2018-05-08T00:35:31.208Z,12.66
2018-05-08T00:35:35.410Z,12.65
2018-05-08T00:35:39.705Z,12.66
2018-05-08T00:35:44.031Z,12.66
2018-05-08T00:35:48.246Z,12.65
2018-05-08T00:35:52.467Z,12.65
2018-05-08T00:35:56.875Z,12.66
2018-05-08T00:36:01.080Z,12.65
2018-05-08T00:36:05.406Z,12.65
2018-05-08T00:36:09.619Z,12.65
2018-05-08T00:36:13.828Z,12.64
2018-05-08T00:36:18.036Z,12.65
2018-05-08T00:36:22.353Z,12.65
2018-05-08T00:36:26.560Z,12.66
2018-05-08T00:36:30.765Z,12.65
2018-05-08T00:36:35.088Z,12.64
2018-05-08T00:36:39.406Z,12.65
2018-05-08T00:36:43.618Z,12.65
2018-05-08T00:36:47.720Z,12.64
2018-05-08T00:36:52.043Z,12.65
2018-05-08T00:36:56.039Z,12.65
2018-05-08T00:37:00.358Z,12.64
2018-05-08T00:37:04.458Z,12.64
2018-05-08T00:37:08.665Z,12.64
2018-05-08T00:37:12.991Z,12.63
2018-05-08T00:37:17.307Z,12.63
2018-05-08T00:37:21.296Z,12.63
2018-05-08T00:37:25.634Z,12.63
2018-05-08T00:37:29.849Z,12.63
2018-05-08T00:37:34.175Z,12.64
2018-05-08T00:37:38.496Z,12.63
2018-05-08T00:37:42.606Z,12.62
2018-05-08T00:37:46.819Z,12.63
2018-05-08T00:37:51.144Z,12.63
2018-05-08T00:37:55.460Z,12.63
2018-05-08T00:37:59.781Z,12.63
2018-05-08T00:38:03.986Z,12.62
2018-05-08T00:38:08.193Z,12.63
2018-05-08T00:38:12.404Z,12.63
2018-05-08T00:38:16.619Z,12.62
2018-05-08T00:38:20.717Z,12.62
2018-05-08T00:38:24.925Z,12.63
2018-05-08T00:38:29.239Z,12.63
2018-05-08T00:38:33.499Z,12.63
2018-05-08T00:38:37.715Z,12.63
2018-05-08T00:38:42.028Z,12.62
2018-05-08T00:38:46.241Z,12.63
2018-05-08T00:38:50.445Z,12.64
2018-05-08T00:38:54.656Z,12.63
2018-05-08T00:38:58.973Z,12.63
2018-05-08T00:39:03.073Z,12.63
2018-05-08T00:39:07.171Z,12.63
2018-05-08T00:39:11.483Z,12.63
2018-05-08T00:39:15.805Z,12.63
2018-05-08T00:39:20.158Z,12.63
2018-05-08T00:39:24.480Z,12.63
2018-05-08T00:39:28.695Z,12.63
2018-05-08T00:39:33.016Z,12.63
2018-05-08T00:39:37.008Z,12.63
2018-05-08T00:39:41.218Z,12.63
2018-05-08T00:39:45.534Z,12.63
2018-05-08T00:39:49.858Z,12.63
2018-05-08T00:39:53.955Z,12.63
2018-05-08T00:39:58.276Z,12.63
2018-05-08T00:40:02.693Z,12.64
2018-05-08T00:40:06.904Z,12.63
2018-05-08T00:40:11.233Z,12.64
2018-05-08T00:40:15.228Z,12.64
2018-05-08T00:40:19.546Z,12.63
2018-05-08T00:40:23.937Z,12.63
2018-05-08T00:40:28.256Z,12.63
2018-05-08T00:40:32.472Z,12.63
2018-05-08T00:40:36.681Z,12.63
2018-05-08T00:40:40.897Z,12.64
2018-05-08T00:40:44.997Z,12.64
2018-05-08T00:40:49.204Z,12.64
2018-05-08T00:40:53.543Z,12.65
2018-05-08T00:40:57.769Z,12.63
2018-05-08T00:41:01.875Z,12.64
2018-05-08T00:41:05.776Z,12.64
2018-05-08T00:41:09.883Z,12.63
2018-05-08T00:41:14.088Z,12.64
2018-05-08T00:41:18.404Z,12.64
2018-05-08T00:41:22.610Z,12.64
2018-05-08T00:41:26.829Z,12.64
2018-05-08T00:41:30.732Z,12.65
2018-05-08T00:41:34.829Z,12.64
2018-05-08T00:41:39.148Z,12.64
2018-05-08T00:41:43.365Z,12.64
2018-05-08T00:41:47.572Z,12.65
2018-05-08T00:41:51.699Z,12.64
2018-05-08T00:41:55.916Z,12.64
2018-05-08T00:42:00.243Z,12.64
2018-05-08T00:42:04.662Z,12.64
2018-05-08T00:42:08.879Z,12.64
2018-05-08T00:42:13.093Z,12.64
2018-05-08T00:42:17.409Z,12.64
2018-05-08T00:42:21.614Z,12.64
2018-05-08T00:42:25.820Z,12.65
2018-05-08T00:42:29.812Z,12.65
2018-05-08T00:42:34.123Z,12.65
2018-05-08T00:42:38.439Z,12.64
2018-05-08T00:42:42.760Z,12.65
2018-05-08T00:42:46.981Z,12.65
2018-05-08T00:42:51.191Z,12.65
2018-05-08T00:42:55.512Z,12.64
2018-05-08T00:42:59.840Z,12.65
2018-05-08T00:43:03.939Z,12.64
2018-05-08T00:43:08.045Z,12.65
2018-05-08T00:43:12.148Z,12.65
2018-05-08T00:43:16.279Z,12.65
2018-05-08T00:43:20.599Z,12.65
2018-05-08T00:43:24.924Z,12.65
2018-05-08T00:43:29.240Z,12.65
2018-05-08T00:43:33.556Z,12.66
2018-05-08T00:43:37.870Z,12.65
2018-05-08T00:43:42.102Z,12.65
2018-05-08T00:43:46.094Z,12.65
2018-05-08T00:43:50.301Z,12.65
2018-05-08T00:43:54.506Z,12.65
2018-05-08T00:43:58.709Z,12.65
2018-05-08T00:44:02.813Z,12.65
2018-05-08T00:44:07.021Z,12.64
2018-05-08T00:44:11.234Z,12.65
2018-05-08T00:44:15.233Z,12.66
2018-05-08T00:44:19.442Z,12.65
2018-05-08T00:44:23.756Z,12.66
2018-05-08T00:44:27.646Z,12.65
2018-05-08T00:44:31.855Z,12.65
2018-05-08T00:44:35.844Z,12.65
2018-05-08T00:44:40.179Z,12.66
2018-05-08T00:44:44.389Z,12.65
2018-05-08T00:44:48.606Z,12.66
2018-05-08T00:44:52.833Z,12.65
2018-05-08T00:44:56.930Z,12.66
2018-05-08T00:45:01.246Z,12.66
2018-05-08T00:45:05.351Z,12.66
2018-05-08T00:45:09.559Z,12.66
2018-05-08T00:45:13.664Z,12.67
2018-05-08T00:45:17.887Z,12.65
2018-05-08T00:45:22.090Z,12.66
2018-05-08T00:45:26.299Z,12.66
2018-05-08T00:45:30.405Z,12.65
2018-05-08T00:45:34.615Z,12.66
2018-05-08T00:45:38.832Z,12.66
2018-05-08T00:45:43.143Z,12.66
2018-05-08T00:45:47.357Z,12.65
2018-05-08T00:45:51.574Z,12.66
2018-05-08T00:45:55.799Z,12.66
2018-05-08T00:45:59.905Z,12.66
2018-05-08T00:46:04.018Z,12.65
2018-05-08T00:46:08.236Z,12.65
2018-05-08T00:46:12.227Z,12.66
2018-05-08T00:46:16.543Z,12.65
2018-05-08T00:46:20.752Z,12.65
2018-05-08T00:46:24.853Z,12.65
2018-05-08T00:46:29.057Z,12.66
2018-05-08T00:46:33.267Z,12.66
2018-05-08T00:46:37.585Z,12.65
2018-05-08T00:46:41.894Z,12.66
2018-05-08T00:46:46.110Z,12.65
2018-05-08T00:46:50.331Z,12.66
2018-05-08T00:46:54.644Z,12.66
2018-05-08T00:46:58.967Z,12.66
2018-05-08T00:47:03.178Z,12.65
2018-05-08T00:47:07.385Z,12.64
2018-05-08T00:47:11.707Z,12.65
2018-05-08T00:47:15.913Z,12.65
2018-05-08T00:47:19.903Z,12.65
2018-05-08T00:47:24.121Z,12.65
2018-05-08T00:47:28.329Z,12.65
2018-05-08T00:47:32.652Z,12.65
2018-05-08T00:47:36.754Z,12.65
2018-05-08T00:47:41.027Z,12.65
2018-05-08T00:47:45.342Z,12.65
2018-05-08T00:47:49.550Z,12.64
2018-05-08T00:47:53.913Z,12.65
2018-05-08T00:47:58.126Z,12.64
2018-05-08T00:48:02.322Z,12.64
2018-05-08T00:48:06.320Z,12.65
2018-05-08T00:48:10.318Z,12.65
2018-05-08T00:48:14.425Z,12.64
2018-05-08T00:48:18.525Z,12.64
2018-05-08T00:48:22.623Z,12.64
2018-05-08T00:48:26.727Z,12.65
2018-05-08T00:48:31.046Z,12.64
2018-05-08T00:48:35.326Z,12.64
2018-05-08T00:48:39.638Z,12.64
2018-05-08T00:48:43.950Z,12.64
2018-05-08T00:48:48.274Z,12.64
2018-05-08T00:48:52.480Z,12.63
2018-05-08T00:48:56.684Z,12.64
2018-05-08T00:49:00.997Z,12.64
2018-05-08T00:49:05.096Z,12.63
2018-05-08T00:49:09.310Z,12.63
2018-05-08T00:49:13.409Z,12.64
2018-05-08T00:49:17.623Z,12.63
2018-05-08T00:49:21.723Z,12.63
2018-05-08T00:49:25.606Z,12.63
2018-05-08T00:49:29.705Z,12.62
2018-05-08T00:49:34.029Z,12.62
2018-05-08T00:49:38.132Z,12.62
2018-05-08T00:49:42.347Z,12.64
2018-05-08T00:49:46.440Z,12.63
2018-05-08T00:49:50.541Z,12.63
2018-05-08T00:49:54.860Z,12.62
2018-05-08T00:49:59.066Z,12.62
2018-05-08T00:50:03.288Z,12.62
2018-05-08T00:50:07.496Z,12.63
2018-05-08T00:50:11.830Z,12.61
2018-05-08T00:50:16.051Z,12.61
2018-05-08T00:50:20.047Z,12.61
2018-05-08T00:50:24.038Z,12.61
2018-05-08T00:50:28.245Z,12.61
2018-05-08T00:50:32.447Z,12.61
2018-05-08T00:50:36.658Z,12.6
2018-05-08T00:50:40.981Z,12.61
2018-05-08T00:50:45.083Z,12.61
2018-05-08T00:50:49.187Z,12.6
2018-05-08T00:50:53.398Z,12.61
2018-05-08T00:50:57.605Z,12.61
2018-05-08T00:51:01.943Z,12.6
2018-05-08T00:51:06.159Z,12.6
2018-05-08T00:51:10.359Z,12.6
2018-05-08T00:51:14.611Z,12.59
2018-05-08T00:51:18.704Z,12.59
2018-05-08T00:51:22.913Z,12.59
2018-05-08T00:51:27.229Z,12.59
2018-05-08T00:51:31.115Z,12.59
2018-05-08T00:51:35.436Z,12.59
2018-05-08T00:51:39.646Z,12.59
2018-05-08T00:51:43.857Z,12.58
2018-05-08T00:51:48.074Z,12.59
2018-05-08T00:51:52.388Z,12.58
2018-05-08T00:51:56.703Z,12.59
2018-05-08T00:52:01.014Z,12.59
2018-05-08T00:52:05.173Z,12.58
2018-05-08T00:52:09.278Z,12.58
2018-05-08T00:52:13.590Z,12.58
2018-05-08T00:52:17.911Z,12.57
2018-05-08T00:52:22.119Z,12.58
2018-05-08T00:52:26.433Z,12.58
2018-05-08T00:52:30.750Z,12.57
2018-05-08T00:52:34.859Z,12.58
2018-05-08T00:52:39.067Z,12.57
2018-05-08T00:52:43.389Z,12.57
2018-05-08T00:52:47.706Z,12.57
2018-05-08T00:52:51.914Z,12.57
2018-05-08T00:52:56.118Z,12.57
2018-05-08T00:53:00.217Z,12.57
2018-05-08T00:53:04.221Z,12.57
2018-05-08T00:53:08.324Z,12.56
2018-05-08T00:53:12.643Z,12.57
2018-05-08T00:53:16.964Z,12.57
2018-05-08T00:53:21.175Z,12.56
2018-05-08T00:53:25.384Z,12.55
2018-05-08T00:53:29.651Z,12.56
2018-05-08T00:53:33.962Z,12.55
2018-05-08T00:53:38.163Z,12.56
2018-05-08T00:53:42.447Z,12.56
2018-05-08T00:53:46.661Z,12.55
2018-05-08T00:53:50.873Z,12.56
2018-05-08T00:53:55.052Z,12.55
2018-05-08T00:53:59.190Z,12.55
2018-05-08T00:54:03.406Z,12.54
2018-05-08T00:54:07.609Z,12.55
2018-05-08T00:54:11.815Z,12.54
2018-05-08T00:54:15.938Z,12.54
2018-05-08T00:54:19.931Z,12.55